sensor_id;sensor_type;location;lat;lon;timestamp;P1;durP1;ratioP1;P2;durP2;ratioP2
13122;SDS011;6627;50.920;12.050;2022-07-29T00:01:03;5.00;;;1.73;;
13122;SDS011;6627;50.920;12.050;2022-07-29T00:03:30;4.87;;;1.70;;
13122;SDS011;6627;50.920;12.050;2022-07-29T00:05:57;4.50;;;1.47;;
13122;SDS011;6627;50.920;12.050;2022-07-29T00:08:24;5.37;;;1.97;;
13122;SDS011;6627;50.920;12.050;2022-07-29T00:10:52;5.97;;;1.90;;
13122;SDS011;6627;50.920;12.050;2022-07-29T00:13:19;2.43;;;1.50;;
13122;SDS011;6627;50.920;12.050;2022-07-29T00:15:46;6.90;;;1.80;;
13122;SDS011;6627;50.920;12.050;2022-07-29T00:18:16;4.50;;;1.90;;
13122;SDS011;6627;50.920;12.050;2022-07-29T00:20:44;7.27;;;1.90;;
13122;SDS011;6627;50.920;12.050;2022-07-29T00:23:11;4.70;;;1.80;;
13122;SDS011;6627;50.920;12.050;2022-07-29T00:25:38;4.37;;;1.90;;
13122;SDS011;6627;50.920;12.050;2022-07-29T00:28:05;5.40;;;1.70;;
13122;SDS011;6627;50.920;12.050;2022-07-29T00:30:32;7.13;;;1.73;;
13122;SDS011;6627;50.920;12.050;2022-07-29T00:32:59;9.40;;;1.70;;
13122;SDS011;6627;50.920;12.050;2022-07-29T00:35:28;6.17;;;1.87;;
13122;SDS011;6627;50.920;12.050;2022-07-29T00:38:10;3.20;;;1.70;;
13122;SDS011;6627;50.920;12.050;2022-07-29T00:40:38;4.03;;;1.70;;
13122;SDS011;6627;50.920;12.050;2022-07-29T00:43:05;7.77;;;1.93;;
13122;SDS011;6627;50.920;12.050;2022-07-29T00:45:34;4.57;;;1.67;;
13122;SDS011;6627;50.920;12.050;2022-07-29T00:48:01;5.03;;;2.13;;
13122;SDS011;6627;50.920;12.050;2022-07-29T00:50:33;4.97;;;2.03;;
13122;SDS011;6627;50.920;12.050;2022-07-29T00:53:01;3.10;;;1.60;;
13122;SDS011;6627;50.920;12.050;2022-07-29T00:55:30;4.63;;;2.03;;
13122;SDS011;6627;50.920;12.050;2022-07-29T00:57:58;8.13;;;2.23;;
13122;SDS011;6627;50.920;12.050;2022-07-29T01:00:27;5.77;;;1.63;;
13122;SDS011;6627;50.920;12.050;2022-07-29T01:02:55;4.20;;;1.60;;
13122;SDS011;6627;50.920;12.050;2022-07-29T01:05:23;4.73;;;1.60;;
13122;SDS011;6627;50.920;12.050;2022-07-29T01:07:55;10.03;;;1.80;;
13122;SDS011;6627;50.920;12.050;2022-07-29T01:10:24;4.90;;;1.90;;
13122;SDS011;6627;50.920;12.050;2022-07-29T01:12:54;4.23;;;1.90;;
13122;SDS011;6627;50.920;12.050;2022-07-29T01:15:25;2.77;;;1.40;;
13122;SDS011;6627;50.920;12.050;2022-07-29T01:17:57;5.57;;;2.00;;
13122;SDS011;6627;50.920;12.050;2022-07-29T01:20:37;6.93;;;1.90;;
13122;SDS011;6627;50.920;12.050;2022-07-29T01:23:43;6.03;;;2.07;;
13122;SDS011;6627;50.920;12.050;2022-07-29T01:26:33;5.93;;;1.90;;
13122;SDS011;6627;50.920;12.050;2022-07-29T01:29:12;3.97;;;2.20;;
13122;SDS011;6627;50.920;12.050;2022-07-29T01:31:53;9.00;;;1.93;;
13122;SDS011;6627;50.920;12.050;2022-07-29T01:34:29;10.97;;;2.03;;
13122;SDS011;6627;50.920;12.050;2022-07-29T01:37:13;5.07;;;2.00;;
13122;SDS011;6627;50.920;12.050;2022-07-29T01:39:49;3.67;;;1.73;;
13122;SDS011;6627;50.920;12.050;2022-07-29T01:42:23;7.30;;;1.90;;
13122;SDS011;6627;50.920;12.050;2022-07-29T01:45:05;7.80;;;1.90;;
13122;SDS011;6627;50.920;12.050;2022-07-29T01:47:42;3.67;;;1.80;;
13122;SDS011;6627;50.920;12.050;2022-07-29T01:50:16;6.37;;;2.23;;
13122;SDS011;6627;50.920;12.050;2022-07-29T01:52:52;4.37;;;1.50;;
13122;SDS011;6627;50.920;12.050;2022-07-29T01:55:25;6.60;;;2.13;;
13122;SDS011;6627;50.920;12.050;2022-07-29T01:57:58;4.37;;;1.83;;
13122;SDS011;6627;50.920;12.050;2022-07-29T02:00:31;4.47;;;1.67;;
13122;SDS011;6627;50.920;12.050;2022-07-29T02:03:02;5.37;;;1.97;;
13122;SDS011;6627;50.920;12.050;2022-07-29T02:05:35;4.50;;;1.80;;
13122;SDS011;6627;50.920;12.050;2022-07-29T02:08:07;5.77;;;2.27;;
13122;SDS011;6627;50.920;12.050;2022-07-29T02:10:36;6.27;;;2.00;;
13122;SDS011;6627;50.920;12.050;2022-07-29T02:13:07;5.47;;;2.00;;
13122;SDS011;6627;50.920;12.050;2022-07-29T02:15:40;7.70;;;2.30;;
13122;SDS011;6627;50.920;12.050;2022-07-29T02:18:11;6.13;;;2.03;;
13122;SDS011;6627;50.920;12.050;2022-07-29T02:20:43;4.17;;;1.80;;
13122;SDS011;6627;50.920;12.050;2022-07-29T02:23:16;4.43;;;1.87;;
13122;SDS011;6627;50.920;12.050;2022-07-29T02:25:47;5.17;;;2.13;;
13122;SDS011;6627;50.920;12.050;2022-07-29T02:28:17;2.97;;;1.90;;
13122;SDS011;6627;50.920;12.050;2022-07-29T02:30:47;4.80;;;2.23;;
13122;SDS011;6627;50.920;12.050;2022-07-29T02:33:18;5.37;;;2.07;;
13122;SDS011;6627;50.920;12.050;2022-07-29T02:35:48;5.13;;;2.10;;
13122;SDS011;6627;50.920;12.050;2022-07-29T02:38:17;4.60;;;1.60;;
13122;SDS011;6627;50.920;12.050;2022-07-29T02:41:05;3.27;;;2.00;;
13122;SDS011;6627;50.920;12.050;2022-07-29T02:43:37;10.03;;;2.10;;
13122;SDS011;6627;50.920;12.050;2022-07-29T02:46:11;8.13;;;2.23;;
13122;SDS011;6627;50.920;12.050;2022-07-29T02:48:47;4.90;;;2.27;;
13122;SDS011;6627;50.920;12.050;2022-07-29T02:51:23;5.77;;;2.43;;
13122;SDS011;6627;50.920;12.050;2022-07-29T02:53:55;9.30;;;2.67;;
13122;SDS011;6627;50.920;12.050;2022-07-29T02:56:27;11.57;;;2.23;;
13122;SDS011;6627;50.920;12.050;2022-07-29T02:59:01;6.50;;;2.40;;
13122;SDS011;6627;50.920;12.050;2022-07-29T03:01:38;5.90;;;2.10;;
13122;SDS011;6627;50.920;12.050;2022-07-29T03:04:09;5.63;;;2.27;;
13122;SDS011;6627;50.920;12.050;2022-07-29T03:06:41;6.83;;;2.00;;
13122;SDS011;6627;50.920;12.050;2022-07-29T03:09:10;5.40;;;2.10;;
13122;SDS011;6627;50.920;12.050;2022-07-29T03:11:39;4.37;;;1.87;;
13122;SDS011;6627;50.920;12.050;2022-07-29T03:14:08;5.43;;;2.20;;
13122;SDS011;6627;50.920;12.050;2022-07-29T03:16:37;5.97;;;2.33;;
13122;SDS011;6627;50.920;12.050;2022-07-29T03:19:05;8.60;;;2.20;;
13122;SDS011;6627;50.920;12.050;2022-07-29T03:21:33;4.67;;;1.93;;
13122;SDS011;6627;50.920;12.050;2022-07-29T03:24:01;8.73;;;2.40;;
13122;SDS011;6627;50.920;12.050;2022-07-29T03:26:28;11.13;;;2.23;;
13122;SDS011;6627;50.920;12.050;2022-07-29T03:28:56;4.53;;;2.00;;
13122;SDS011;6627;50.920;12.050;2022-07-29T03:31:23;5.30;;;2.23;;
13122;SDS011;6627;50.920;12.050;2022-07-29T03:33:52;4.00;;;2.10;;
13122;SDS011;6627;50.920;12.050;2022-07-29T03:36:19;6.47;;;2.03;;
13122;SDS011;6627;50.920;12.050;2022-07-29T03:38:46;4.50;;;2.30;;
13122;SDS011;6627;50.920;12.050;2022-07-29T03:41:15;3.17;;;1.87;;
13122;SDS011;6627;50.920;12.050;2022-07-29T03:43:45;4.13;;;1.90;;
13122;SDS011;6627;50.920;12.050;2022-07-29T03:46:17;5.63;;;2.23;;
13122;SDS011;6627;50.920;12.050;2022-07-29T03:48:52;5.57;;;2.33;;
13122;SDS011;6627;50.920;12.050;2022-07-29T03:51:29;8.90;;;2.80;;
13122;SDS011;6627;50.920;12.050;2022-07-29T03:53:57;5.80;;;2.03;;
13122;SDS011;6627;50.920;12.050;2022-07-29T03:56:24;5.03;;;2.10;;
13122;SDS011;6627;50.920;12.050;2022-07-29T03:58:54;6.63;;;2.00;;
13122;SDS011;6627;50.920;12.050;2022-07-29T04:01:22;4.13;;;2.10;;
13122;SDS011;6627;50.920;12.050;2022-07-29T04:03:53;6.60;;;2.43;;
13122;SDS011;6627;50.920;12.050;2022-07-29T04:06:20;5.57;;;2.20;;
13122;SDS011;6627;50.920;12.050;2022-07-29T04:08:51;4.47;;;2.00;;
13122;SDS011;6627;50.920;12.050;2022-07-29T04:11:18;4.57;;;2.27;;
13122;SDS011;6627;50.920;12.050;2022-07-29T04:13:45;5.20;;;2.30;;
13122;SDS011;6627;50.920;12.050;2022-07-29T04:16:13;4.47;;;2.20;;
13122;SDS011;6627;50.920;12.050;2022-07-29T04:18:40;7.47;;;2.27;;
13122;SDS011;6627;50.920;12.050;2022-07-29T04:21:12;7.17;;;2.53;;
13122;SDS011;6627;50.920;12.050;2022-07-29T04:23:58;8.07;;;2.53;;
13122;SDS011;6627;50.920;12.050;2022-07-29T04:26:27;4.77;;;2.20;;
13122;SDS011;6627;50.920;12.050;2022-07-29T04:28:54;8.63;;;2.40;;
13122;SDS011;6627;50.920;12.050;2022-07-29T04:31:22;9.83;;;2.20;;
13122;SDS011;6627;50.920;12.050;2022-07-29T04:33:49;6.00;;;2.13;;
13122;SDS011;6627;50.920;12.050;2022-07-29T04:36:18;5.87;;;2.47;;
13122;SDS011;6627;50.920;12.050;2022-07-29T04:38:45;7.73;;;2.43;;
13122;SDS011;6627;50.920;12.050;2022-07-29T04:41:12;6.77;;;2.67;;
13122;SDS011;6627;50.920;12.050;2022-07-29T04:43:39;5.83;;;2.10;;
13122;SDS011;6627;50.920;12.050;2022-07-29T04:46:06;10.77;;;3.20;;
13122;SDS011;6627;50.920;12.050;2022-07-29T04:48:34;5.33;;;2.43;;
13122;SDS011;6627;50.920;12.050;2022-07-29T04:51:01;7.97;;;2.23;;
13122;SDS011;6627;50.920;12.050;2022-07-29T04:53:30;7.10;;;2.10;;
13122;SDS011;6627;50.920;12.050;2022-07-29T04:55:57;6.43;;;2.77;;
13122;SDS011;6627;50.920;12.050;2022-07-29T04:58:25;8.60;;;2.60;;
13122;SDS011;6627;50.920;12.050;2022-07-29T05:00:52;7.47;;;2.50;;
13122;SDS011;6627;50.920;12.050;2022-07-29T05:03:20;6.03;;;2.20;;
13122;SDS011;6627;50.920;12.050;2022-07-29T05:05:47;10.77;;;2.67;;
13122;SDS011;6627;50.920;12.050;2022-07-29T05:08:15;5.80;;;2.27;;
13122;SDS011;6627;50.920;12.050;2022-07-29T05:10:44;5.20;;;2.40;;
13122;SDS011;6627;50.920;12.050;2022-07-29T05:13:12;6.90;;;2.60;;
13122;SDS011;6627;50.920;12.050;2022-07-29T05:15:40;9.80;;;2.67;;
13122;SDS011;6627;50.920;12.050;2022-07-29T05:18:08;10.00;;;3.10;;
13122;SDS011;6627;50.920;12.050;2022-07-29T05:20:35;15.23;;;3.10;;
13122;SDS011;6627;50.920;12.050;2022-07-29T05:23:03;8.40;;;2.83;;
13122;SDS011;6627;50.920;12.050;2022-07-29T05:25:31;11.47;;;3.10;;
13122;SDS011;6627;50.920;12.050;2022-07-29T05:28:01;11.40;;;3.63;;
13122;SDS011;6627;50.920;12.050;2022-07-29T05:30:28;9.10;;;2.90;;
13122;SDS011;6627;50.920;12.050;2022-07-29T05:32:56;10.73;;;2.90;;
13122;SDS011;6627;50.920;12.050;2022-07-29T05:35:24;10.30;;;3.10;;
13122;SDS011;6627;50.920;12.050;2022-07-29T05:37:52;11.60;;;2.70;;
13122;SDS011;6627;50.920;12.050;2022-07-29T05:40:19;9.10;;;2.77;;
13122;SDS011;6627;50.920;12.050;2022-07-29T05:42:47;3.70;;;2.37;;
13122;SDS011;6627;50.920;12.050;2022-07-29T05:45:16;8.63;;;2.63;;
13122;SDS011;6627;50.920;12.050;2022-07-29T05:47:44;6.07;;;2.63;;
13122;SDS011;6627;50.920;12.050;2022-07-29T05:50:12;8.13;;;2.50;;
13122;SDS011;6627;50.920;12.050;2022-07-29T05:52:41;8.53;;;2.70;;
13122;SDS011;6627;50.920;12.050;2022-07-29T05:55:08;6.10;;;2.43;;
13122;SDS011;6627;50.920;12.050;2022-07-29T05:57:36;11.73;;;2.60;;
13122;SDS011;6627;50.920;12.050;2022-07-29T06:00:04;8.93;;;3.00;;
13122;SDS011;6627;50.920;12.050;2022-07-29T06:02:34;5.93;;;2.47;;
13122;SDS011;6627;50.920;12.050;2022-07-29T06:05:01;7.47;;;2.77;;
13122;SDS011;6627;50.920;12.050;2022-07-29T06:07:29;6.23;;;2.93;;
13122;SDS011;6627;50.920;12.050;2022-07-29T06:09:58;9.03;;;2.90;;
13122;SDS011;6627;50.920;12.050;2022-07-29T06:12:25;8.57;;;2.80;;
13122;SDS011;6627;50.920;12.050;2022-07-29T06:14:52;6.07;;;2.83;;
13122;SDS011;6627;50.920;12.050;2022-07-29T06:17:20;10.97;;;3.00;;
13122;SDS011;6627;50.920;12.050;2022-07-29T06:19:49;5.10;;;2.53;;
13122;SDS011;6627;50.920;12.050;2022-07-29T06:22:16;6.93;;;2.43;;
13122;SDS011;6627;50.920;12.050;2022-07-29T06:24:44;7.60;;;2.60;;
13122;SDS011;6627;50.920;12.050;2022-07-29T06:27:12;6.23;;;2.50;;
13122;SDS011;6627;50.920;12.050;2022-07-29T06:29:39;6.43;;;2.40;;
13122;SDS011;6627;50.920;12.050;2022-07-29T06:32:06;9.13;;;2.60;;
13122;SDS011;6627;50.920;12.050;2022-07-29T06:34:37;6.77;;;2.60;;
13122;SDS011;6627;50.920;12.050;2022-07-29T06:37:09;8.60;;;2.93;;
13122;SDS011;6627;50.920;12.050;2022-07-29T06:39:37;8.07;;;3.00;;
13122;SDS011;6627;50.920;12.050;2022-07-29T06:42:04;10.30;;;2.67;;
13122;SDS011;6627;50.920;12.050;2022-07-29T06:44:32;6.90;;;2.70;;
13122;SDS011;6627;50.920;12.050;2022-07-29T06:47:00;8.90;;;2.67;;
13122;SDS011;6627;50.920;12.050;2022-07-29T06:49:28;9.37;;;3.07;;
13122;SDS011;6627;50.920;12.050;2022-07-29T06:51:56;3.43;;;2.50;;
13122;SDS011;6627;50.920;12.050;2022-07-29T06:54:24;7.53;;;3.03;;
13122;SDS011;6627;50.920;12.050;2022-07-29T06:56:52;7.43;;;2.80;;
13122;SDS011;6627;50.920;12.050;2022-07-29T06:59:19;6.77;;;2.80;;
13122;SDS011;6627;50.920;12.050;2022-07-29T07:01:47;8.00;;;3.37;;
13122;SDS011;6627;50.920;12.050;2022-07-29T07:04:15;8.60;;;3.00;;
13122;SDS011;6627;50.920;12.050;2022-07-29T07:06:42;8.43;;;3.03;;
13122;SDS011;6627;50.920;12.050;2022-07-29T07:09:10;11.13;;;3.07;;
13122;SDS011;6627;50.920;12.050;2022-07-29T07:11:38;13.53;;;3.40;;
13122;SDS011;6627;50.920;12.050;2022-07-29T07:14:06;7.80;;;3.00;;
13122;SDS011;6627;50.920;12.050;2022-07-29T07:16:34;6.87;;;2.97;;
13122;SDS011;6627;50.920;12.050;2022-07-29T07:19:02;5.90;;;2.77;;
13122;SDS011;6627;50.920;12.050;2022-07-29T07:21:29;7.13;;;3.20;;
13122;SDS011;6627;50.920;12.050;2022-07-29T07:23:58;5.77;;;2.60;;
13122;SDS011;6627;50.920;12.050;2022-07-29T07:26:26;7.30;;;3.10;;
13122;SDS011;6627;50.920;12.050;2022-07-29T07:28:55;8.43;;;3.50;;
13122;SDS011;6627;50.920;12.050;2022-07-29T07:31:24;8.23;;;3.33;;
13122;SDS011;6627;50.920;12.050;2022-07-29T07:33:52;7.37;;;3.17;;
13122;SDS011;6627;50.920;12.050;2022-07-29T07:36:20;9.73;;;3.40;;
13122;SDS011;6627;50.920;12.050;2022-07-29T07:38:47;9.43;;;3.20;;
13122;SDS011;6627;50.920;12.050;2022-07-29T07:41:16;11.53;;;3.40;;
13122;SDS011;6627;50.920;12.050;2022-07-29T07:43:44;10.10;;;3.03;;
13122;SDS011;6627;50.920;12.050;2022-07-29T07:46:12;10.43;;;3.33;;
13122;SDS011;6627;50.920;12.050;2022-07-29T07:48:39;9.13;;;3.30;;
13122;SDS011;6627;50.920;12.050;2022-07-29T07:51:07;14.37;;;3.80;;
13122;SDS011;6627;50.920;12.050;2022-07-29T07:53:34;13.77;;;3.50;;
13122;SDS011;6627;50.920;12.050;2022-07-29T07:56:01;12.37;;;3.40;;
13122;SDS011;6627;50.920;12.050;2022-07-29T07:58:29;12.57;;;3.60;;
13122;SDS011;6627;50.920;12.050;2022-07-29T08:00:56;6.47;;;3.60;;
13122;SDS011;6627;50.920;12.050;2022-07-29T08:03:25;11.93;;;4.00;;
13122;SDS011;6627;50.920;12.050;2022-07-29T08:05:52;11.33;;;3.80;;
13122;SDS011;6627;50.920;12.050;2022-07-29T08:08:19;7.07;;;3.10;;
13122;SDS011;6627;50.920;12.050;2022-07-29T08:10:47;8.27;;;3.50;;
13122;SDS011;6627;50.920;12.050;2022-07-29T08:13:21;11.23;;;3.50;;
13122;SDS011;6627;50.920;12.050;2022-07-29T08:15:52;6.57;;;3.50;;
13122;SDS011;6627;50.920;12.050;2022-07-29T08:18:25;6.50;;;3.40;;
13122;SDS011;6627;50.920;12.050;2022-07-29T08:20:56;8.60;;;3.50;;
13122;SDS011;6627;50.920;12.050;2022-07-29T08:23:24;11.97;;;3.40;;
13122;SDS011;6627;50.920;12.050;2022-07-29T08:25:52;16.17;;;3.50;;
13122;SDS011;6627;50.920;12.050;2022-07-29T08:28:19;13.90;;;3.80;;
13122;SDS011;6627;50.920;12.050;2022-07-29T08:30:46;10.67;;;3.37;;
13122;SDS011;6627;50.920;12.050;2022-07-29T08:33:13;7.70;;;3.30;;
13122;SDS011;6627;50.920;12.050;2022-07-29T08:35:42;10.87;;;2.90;;
13122;SDS011;6627;50.920;12.050;2022-07-29T08:38:09;7.80;;;2.90;;
13122;SDS011;6627;50.920;12.050;2022-07-29T08:40:36;12.30;;;3.10;;
13122;SDS011;6627;50.920;12.050;2022-07-29T08:43:04;13.13;;;3.00;;
13122;SDS011;6627;50.920;12.050;2022-07-29T08:45:36;9.00;;;2.60;;
13122;SDS011;6627;50.920;12.050;2022-07-29T08:48:11;10.30;;;3.20;;
13122;SDS011;6627;50.920;12.050;2022-07-29T08:50:39;10.10;;;3.33;;
13122;SDS011;6627;50.920;12.050;2022-07-29T08:53:10;16.63;;;2.73;;
13122;SDS011;6627;50.920;12.050;2022-07-29T08:55:40;11.40;;;3.20;;
13122;SDS011;6627;50.920;12.050;2022-07-29T08:58:09;13.00;;;3.03;;
13122;SDS011;6627;50.920;12.050;2022-07-29T09:00:42;11.73;;;3.30;;
13122;SDS011;6627;50.920;12.050;2022-07-29T09:03:14;6.77;;;2.33;;
13122;SDS011;6627;50.920;12.050;2022-07-29T09:05:47;8.30;;;3.10;;
13122;SDS011;6627;50.920;12.050;2022-07-29T09:08:16;13.50;;;3.00;;
13122;SDS011;6627;50.920;12.050;2022-07-29T09:10:44;6.40;;;2.47;;
13122;SDS011;6627;50.920;12.050;2022-07-29T09:13:12;7.33;;;2.50;;
13122;SDS011;6627;50.920;12.050;2022-07-29T09:15:39;11.30;;;2.90;;
13122;SDS011;6627;50.920;12.050;2022-07-29T09:18:07;8.77;;;2.60;;
13122;SDS011;6627;50.920;12.050;2022-07-29T09:20:34;7.83;;;2.93;;
13122;SDS011;6627;50.920;12.050;2022-07-29T09:23:20;4.13;;;2.20;;
13122;SDS011;6627;50.920;12.050;2022-07-29T09:25:48;8.67;;;2.73;;
13122;SDS011;6627;50.920;12.050;2022-07-29T09:28:16;8.70;;;2.97;;
13122;SDS011;6627;50.920;12.050;2022-07-29T09:30:49;10.93;;;3.47;;
13122;SDS011;6627;50.920;12.050;2022-07-29T09:33:20;6.73;;;2.80;;
13122;SDS011;6627;50.920;12.050;2022-07-29T09:35:58;10.63;;;2.50;;
13122;SDS011;6627;50.920;12.050;2022-07-29T09:38:28;7.77;;;2.93;;
13122;SDS011;6627;50.920;12.050;2022-07-29T09:40:56;5.87;;;2.83;;
13122;SDS011;6627;50.920;12.050;2022-07-29T09:43:25;5.97;;;2.63;;
13122;SDS011;6627;50.920;12.050;2022-07-29T09:45:52;6.20;;;2.90;;
13122;SDS011;6627;50.920;12.050;2022-07-29T09:48:21;11.73;;;3.00;;
13122;SDS011;6627;50.920;12.050;2022-07-29T09:50:51;10.77;;;3.50;;
13122;SDS011;6627;50.920;12.050;2022-07-29T09:53:33;10.00;;;2.90;;
13122;SDS011;6627;50.920;12.050;2022-07-29T09:56:03;111.57;;;9.33;;
13122;SDS011;6627;50.920;12.050;2022-07-29T09:58:31;9.67;;;3.00;;
13122;SDS011;6627;50.920;12.050;2022-07-29T10:00:59;8.53;;;3.23;;
13122;SDS011;6627;50.920;12.050;2022-07-29T10:03:28;15.07;;;3.17;;
13122;SDS011;6627;50.920;12.050;2022-07-29T10:06:05;12.83;;;3.80;;
13122;SDS011;6627;50.920;12.050;2022-07-29T10:08:36;7.23;;;3.07;;
13122;SDS011;6627;50.920;12.050;2022-07-29T10:11:11;13.00;;;3.50;;
13122;SDS011;6627;50.920;12.050;2022-07-29T10:13:40;14.00;;;3.00;;
13122;SDS011;6627;50.920;12.050;2022-07-29T10:16:10;6.17;;;3.00;;
13122;SDS011;6627;50.920;12.050;2022-07-29T10:18:39;6.13;;;3.03;;
13122;SDS011;6627;50.920;12.050;2022-07-29T10:21:09;6.37;;;2.87;;
13122;SDS011;6627;50.920;12.050;2022-07-29T10:23:37;7.50;;;2.90;;
13122;SDS011;6627;50.920;12.050;2022-07-29T10:26:07;7.80;;;3.00;;
13122;SDS011;6627;50.920;12.050;2022-07-29T10:28:36;8.70;;;2.37;;
13122;SDS011;6627;50.920;12.050;2022-07-29T10:31:05;6.53;;;2.73;;
13122;SDS011;6627;50.920;12.050;2022-07-29T10:33:43;12.03;;;3.00;;
13122;SDS011;6627;50.920;12.050;2022-07-29T10:36:29;9.63;;;3.23;;
13122;SDS011;6627;50.920;12.050;2022-07-29T10:39:19;6.40;;;2.93;;
13122;SDS011;6627;50.920;12.050;2022-07-29T10:42:11;8.27;;;2.97;;
13122;SDS011;6627;50.920;12.050;2022-07-29T10:44:45;6.50;;;2.90;;
13122;SDS011;6627;50.920;12.050;2022-07-29T10:47:20;9.63;;;3.07;;
13122;SDS011;6627;50.920;12.050;2022-07-29T10:49:56;11.70;;;3.10;;
13122;SDS011;6627;50.920;12.050;2022-07-29T10:52:37;7.00;;;2.93;;
13122;SDS011;6627;50.920;12.050;2022-07-29T10:55:33;9.97;;;2.93;;
13122;SDS011;6627;50.920;12.050;2022-07-29T10:58:16;6.17;;;3.00;;
13122;SDS011;6627;50.920;12.050;2022-07-29T11:00:46;13.60;;;3.37;;
13122;SDS011;6627;50.920;12.050;2022-07-29T11:06:12;8.83;;;3.40;;
13122;SDS011;6627;50.920;12.050;2022-07-29T11:08:40;8.17;;;3.27;;
13122;SDS011;6627;50.920;12.050;2022-07-29T11:14:08;11.30;;;3.87;;
13122;SDS011;6627;50.920;12.050;2022-07-29T11:19:31;4.63;;;2.97;;
13122;SDS011;6627;50.920;12.050;2022-07-29T11:21:59;8.43;;;3.30;;
13122;SDS011;6627;50.920;12.050;2022-07-29T11:24:27;7.57;;;3.33;;
13122;SDS011;6627;50.920;12.050;2022-07-29T11:27:08;6.07;;;3.33;;
13122;SDS011;6627;50.920;12.050;2022-07-29T11:29:49;7.23;;;3.27;;
13122;SDS011;6627;50.920;12.050;2022-07-29T11:32:20;13.32;;;3.45;;
13122;SDS011;6627;50.920;12.050;2022-07-29T11:35:11;7.07;;;3.30;;
13122;SDS011;6627;50.920;12.050;2022-07-29T11:37:42;5.55;;;3.30;;
13122;SDS011;6627;50.920;12.050;2022-07-29T11:40:12;4.82;;;3.20;;
13122;SDS011;6627;50.920;12.050;2022-07-29T11:42:44;6.22;;;3.92;;
13122;SDS011;6627;50.920;12.050;2022-07-29T11:45:16;7.68;;;3.40;;
13122;SDS011;6627;50.920;12.050;2022-07-29T11:47:54;8.07;;;3.33;;
13122;SDS011;6627;50.920;12.050;2022-07-29T11:50:35;4.85;;;3.33;;
13122;SDS011;6627;50.920;12.050;2022-07-29T11:53:05;4.38;;;3.75;;
13122;SDS011;6627;50.920;12.050;2022-07-29T11:55:39;9.98;;;4.38;;
13122;SDS011;6627;50.920;12.050;2022-07-29T11:58:09;8.77;;;3.90;;
13122;SDS011;6627;50.920;12.050;2022-07-29T12:00:38;6.93;;;3.60;;
13122;SDS011;6627;50.920;12.050;2022-07-29T12:03:08;5.60;;;3.20;;
13122;SDS011;6627;50.920;12.050;2022-07-29T12:05:38;7.88;;;3.53;;
13122;SDS011;6627;50.920;12.050;2022-07-29T12:08:08;7.13;;;3.78;;
13122;SDS011;6627;50.920;12.050;2022-07-29T12:10:39;7.40;;;3.63;;
13122;SDS011;6627;50.920;12.050;2022-07-29T12:13:10;8.05;;;3.45;;
13122;SDS011;6627;50.920;12.050;2022-07-29T12:15:38;9.85;;;3.78;;
13122;SDS011;6627;50.920;12.050;2022-07-29T12:18:09;6.90;;;3.67;;
13122;SDS011;6627;50.920;12.050;2022-07-29T12:20:42;5.10;;;3.47;;
13122;SDS011;6627;50.920;12.050;2022-07-29T12:23:10;6.55;;;3.65;;
13122;SDS011;6627;50.920;12.050;2022-07-29T12:25:40;9.43;;;4.00;;
13122;SDS011;6627;50.920;12.050;2022-07-29T12:28:12;6.18;;;3.80;;
13122;SDS011;6627;50.920;12.050;2022-07-29T12:30:44;6.57;;;3.55;;
13122;SDS011;6627;50.920;12.050;2022-07-29T12:33:18;4.47;;;3.65;;
13122;SDS011;6627;50.920;12.050;2022-07-29T12:35:50;6.28;;;3.70;;
13122;SDS011;6627;50.920;12.050;2022-07-29T12:38:20;5.20;;;3.78;;
13122;SDS011;6627;50.920;12.050;2022-07-29T12:40:48;4.93;;;3.42;;
13122;SDS011;6627;50.920;12.050;2022-07-29T12:43:20;6.78;;;4.03;;
13122;SDS011;6627;50.920;12.050;2022-07-29T12:45:51;6.75;;;3.67;;
13122;SDS011;6627;50.920;12.050;2022-07-29T12:48:32;5.35;;;3.65;;
13122;SDS011;6627;50.920;12.050;2022-07-29T12:51:02;7.65;;;4.00;;
13122;SDS011;6627;50.920;12.050;2022-07-29T12:53:32;9.23;;;3.80;;
13122;SDS011;6627;50.920;12.050;2022-07-29T12:56:01;5.45;;;3.42;;
13122;SDS011;6627;50.920;12.050;2022-07-29T12:58:33;7.60;;;4.13;;
13122;SDS011;6627;50.920;12.050;2022-07-29T13:01:06;13.15;;;4.00;;
13122;SDS011;6627;50.920;12.050;2022-07-29T13:03:47;6.97;;;3.85;;
13122;SDS011;6627;50.920;12.050;2022-07-29T13:06:27;7.95;;;4.35;;
13122;SDS011;6627;50.920;12.050;2022-07-29T13:09:02;9.40;;;4.22;;
13122;SDS011;6627;50.920;12.050;2022-07-29T13:11:32;7.25;;;4.07;;
13122;SDS011;6627;50.920;12.050;2022-07-29T13:14:05;5.28;;;3.70;;
13122;SDS011;6627;50.920;12.050;2022-07-29T13:16:35;5.85;;;3.75;;
13122;SDS011;6627;50.920;12.050;2022-07-29T13:19:18;6.10;;;3.85;;
13122;SDS011;6627;50.920;12.050;2022-07-29T13:21:46;8.38;;;3.72;;
13122;SDS011;6627;50.920;12.050;2022-07-29T13:24:13;7.60;;;3.67;;
13122;SDS011;6627;50.920;12.050;2022-07-29T13:26:40;7.72;;;3.90;;
13122;SDS011;6627;50.920;12.050;2022-07-29T13:29:09;5.15;;;3.83;;
13122;SDS011;6627;50.920;12.050;2022-07-29T13:31:36;6.68;;;3.90;;
13122;SDS011;6627;50.920;12.050;2022-07-29T13:34:04;6.70;;;3.90;;
13122;SDS011;6627;50.920;12.050;2022-07-29T13:36:31;9.02;;;3.92;;
13122;SDS011;6627;50.920;12.050;2022-07-29T13:38:59;6.63;;;3.70;;
13122;SDS011;6627;50.920;12.050;2022-07-29T13:41:27;7.27;;;4.00;;
13122;SDS011;6627;50.920;12.050;2022-07-29T13:43:55;7.18;;;3.95;;
13122;SDS011;6627;50.920;12.050;2022-07-29T13:46:24;5.97;;;3.90;;
13122;SDS011;6627;50.920;12.050;2022-07-29T13:48:51;5.17;;;3.73;;
13122;SDS011;6627;50.920;12.050;2022-07-29T13:51:18;5.90;;;3.83;;
13122;SDS011;6627;50.920;12.050;2022-07-29T13:53:46;6.28;;;4.07;;
13122;SDS011;6627;50.920;12.050;2022-07-29T13:56:13;5.32;;;3.70;;
13122;SDS011;6627;50.920;12.050;2022-07-29T13:58:40;10.80;;;3.72;;
13122;SDS011;6627;50.920;12.050;2022-07-29T14:01:07;9.97;;;3.50;;
13122;SDS011;6627;50.920;12.050;2022-07-29T14:03:36;6.40;;;3.80;;
13122;SDS011;6627;50.920;12.050;2022-07-29T14:06:06;11.10;;;3.50;;
13122;SDS011;6627;50.920;12.050;2022-07-29T14:08:33;6.60;;;3.60;;
13122;SDS011;6627;50.920;12.050;2022-07-29T14:11:01;7.20;;;3.10;;
13122;SDS011;6627;50.920;12.050;2022-07-29T14:13:28;7.43;;;3.60;;
13122;SDS011;6627;50.920;12.050;2022-07-29T14:15:56;7.53;;;3.33;;
13122;SDS011;6627;50.920;12.050;2022-07-29T14:18:24;6.50;;;3.53;;
13122;SDS011;6627;50.920;12.050;2022-07-29T14:20:54;7.23;;;3.73;;
13122;SDS011;6627;50.920;12.050;2022-07-29T14:23:22;5.13;;;3.10;;
13122;SDS011;6627;50.920;12.050;2022-07-29T14:25:49;9.23;;;3.80;;
13122;SDS011;6627;50.920;12.050;2022-07-29T14:28:16;5.53;;;3.87;;
13122;SDS011;6627;50.920;12.050;2022-07-29T14:30:44;6.70;;;3.60;;
13122;SDS011;6627;50.920;12.050;2022-07-29T14:33:11;4.10;;;3.53;;
13122;SDS011;6627;50.920;12.050;2022-07-29T14:35:38;5.13;;;3.60;;
13122;SDS011;6627;50.920;12.050;2022-07-29T14:38:07;5.47;;;3.37;;
13122;SDS011;6627;50.920;12.050;2022-07-29T14:40:34;6.13;;;3.83;;
13122;SDS011;6627;50.920;12.050;2022-07-29T14:43:02;4.80;;;3.67;;
13122;SDS011;6627;50.920;12.050;2022-07-29T14:45:29;6.53;;;3.70;;
13122;SDS011;6627;50.920;12.050;2022-07-29T14:47:57;7.43;;;3.73;;
13122;SDS011;6627;50.920;12.050;2022-07-29T14:50:25;4.97;;;3.87;;
13122;SDS011;6627;50.920;12.050;2022-07-29T14:52:53;4.53;;;3.53;;
13122;SDS011;6627;50.920;12.050;2022-07-29T14:55:21;3.47;;;3.10;;
13122;SDS011;6627;50.920;12.050;2022-07-29T14:57:49;3.43;;;2.67;;
13122;SDS011;6627;50.920;12.050;2022-07-29T15:00:19;3.53;;;2.50;;
13122;SDS011;6627;50.920;12.050;2022-07-29T15:02:47;3.60;;;2.13;;
13122;SDS011;6627;50.920;12.050;2022-07-29T15:05:14;2.40;;;2.17;;
13122;SDS011;6627;50.920;12.050;2022-07-29T15:07:42;2.83;;;2.50;;
13122;SDS011;6627;50.920;12.050;2022-07-29T15:10:09;6.63;;;2.57;;
13122;SDS011;6627;50.920;12.050;2022-07-29T15:12:38;4.50;;;2.30;;